Winfield, KS (67156)

8:18 AM CST on November 22, 2014 (GMT -0600)
Randy's Backyard | Change Station
CLOSE
Current Station
Personal Weather Station
Location: Winfield, KS
Elevation: 1138 ft
Nearby Weather Stations
Active Advisory: Dense Fog Advisory Active Notice: Public Information Statement

Elev 1138 ft 37.24 °N, 97.00 °W | Updated 3 seconds ago

Fog
Fog
55.9 °F
Feels Like 55.9 °F
N
0.0
Wind Variable Wind from NE
Gusts 0.0 mph

Today
High -- | Low -- °F
--% Chance of Precip.
Yesterday
High -- | Low -- °F
Precip. -- in
7:14 AM 5:13 PM
New Moon, 0% visible
Pressure 29.97 in
Visibility 1.0 miles
Clouds
Dew Point 56 °F
Humidity 99%
Rainfall 0.00 in
Snow Depth Not available.
UV Not available.
Pollen .10 out of 12
Air Quality Not available.
Flu Activity Not available.
SPECI KWLD 221413Z AUTO 17011KT 1SM BR VV002 13/13 A2997 RMK AO2 T01330133

More Conditions Fewer Conditions

Pressure 29.97 in
Visibility 1.0 miles
Clouds
Dew Point 56 °F
Humidity 99%
Rainfall 0.00 in
Snow Depth Not available.
UV Not available.
Pollen .10 out of 12
Air Quality Not available.
Flu Activity Not available.
SPECI KWLD 221413Z AUTO 17011KT 1SM BR VV002 13/13 A2997 RMK AO2 T01330133

More Conditions Fewer Conditions

10-Day Weather Forecast

Almanac

Astronomy

Nov. 22, 2014 Rise Set
Actual Time
Civil Twilight
Nautical Twilight
Astronomical Twilight
Moon
Length of Visible Light
Length of Day
Tomorrow will be .
, % of the Moon is Illuminated

Today's Extremes

State Highs State Lows

Community

WunderPhotos

Upload Photos

1,772,818 photos uploaded!

WunderBlogs® & News

Nearby

Air Quality

  Air Quality AQ Index Pollutant
Not available.

Snow Depth

Station Depth Elevation

Earthquake Activity

City Distance Mag. Time & Date
Minimum magnitude displayed is 2.5.

Coastal Water Temperatures

Place Temperature

Nearby Weather Stations